sensor_id;sensor_type;location;lat;lon;timestamp;temperature;humidity
66506;HTU21D;53332;51.082;5.832;2023-06-22T00:01:27;23.38;71.34
66506;HTU21D;53332;51.082;5.832;2023-06-22T00:03:53;23.36;71.79
66506;HTU21D;53332;51.082;5.832;2023-06-22T00:06:18;23.36;71.57
66506;HTU21D;53332;51.082;5.832;2023-06-22T00:08:44;23.35;71.38
66506;HTU21D;53332;51.082;5.832;2023-06-22T00:11:10;23.35;71.06
66506;HTU21D;53332;51.082;5.832;2023-06-22T00:13:36;23.30;71.26
66506;HTU21D;53332;51.082;5.832;2023-06-22T00:16:01;23.30;71.34
66506;HTU21D;53332;51.082;5.832;2023-06-22T00:18:27;23.24;71.67
66506;HTU21D;53332;51.082;5.832;2023-06-22T00:20:57;23.24;71.41
66506;HTU21D;53332;51.082;5.832;2023-06-22T00:23:24;23.21;71.33
66506;HTU21D;53332;51.082;5.832;2023-06-22T00:25:49;23.20;71.48
66506;HTU21D;53332;51.082;5.832;2023-06-22T00:28:15;23.16;71.82
66506;HTU21D;53332;51.082;5.832;2023-06-22T00:30:41;23.20;71.57
66506;HTU21D;53332;51.082;5.832;2023-06-22T00:33:06;23.13;71.37
66506;HTU21D;53332;51.082;5.832;2023-06-22T00:35:33;23.10;70.74
66506;HTU21D;53332;51.082;5.832;2023-06-22T00:38:00;23.06;70.46
66506;HTU21D;53332;51.082;5.832;2023-06-22T00:40:32;23.03;70.64
66506;HTU21D;53332;51.082;5.832;2023-06-22T00:42:58;22.98;70.93
66506;HTU21D;53332;51.082;5.832;2023-06-22T00:45:25;22.96;70.40
66506;HTU21D;53332;51.082;5.832;2023-06-22T00:47:56;22.97;70.05
66506;HTU21D;53332;51.082;5.832;2023-06-22T00:50:24;22.97;69.81
66506;HTU21D;53332;51.082;5.832;2023-06-22T00:52:59;22.97;69.42
66506;HTU21D;53332;51.082;5.832;2023-06-22T00:55:25;22.98;69.19
66506;HTU21D;53332;51.082;5.832;2023-06-22T00:57:52;22.98;68.87
66506;HTU21D;53332;51.082;5.832;2023-06-22T01:00:22;23.01;69.05
66506;HTU21D;53332;51.082;5.832;2023-06-22T01:02:53;23.01;69.59
66506;HTU21D;53332;51.082;5.832;2023-06-22T01:05:20;22.97;70.55
66506;HTU21D;53332;51.082;5.832;2023-06-22T01:07:55;22.95;70.74
66506;HTU21D;53332;51.082;5.832;2023-06-22T01:10:34;22.92;70.69
66506;HTU21D;53332;51.082;5.832;2023-06-22T01:15:57;22.91;70.52
66506;HTU21D;53332;51.082;5.832;2023-06-22T01:18:30;22.86;70.43
66506;HTU21D;53332;51.082;5.832;2023-06-22T01:20:57;22.87;70.54
66506;HTU21D;53332;51.082;5.832;2023-06-22T01:23:27;22.85;70.71
66506;HTU21D;53332;51.082;5.832;2023-06-22T01:28:50;22.83;72.35
66506;HTU21D;53332;51.082;5.832;2023-06-22T01:31:22;22.78;73.62
66506;HTU21D;53332;51.082;5.832;2023-06-22T01:33:53;22.80;74.05
66506;HTU21D;53332;51.082;5.832;2023-06-22T01:36:19;22.80;74.58
66506;HTU21D;53332;51.082;5.832;2023-06-22T01:38:48;22.80;75.20
66506;HTU21D;53332;51.082;5.832;2023-06-22T01:41:18;22.80;76.38
66506;HTU21D;53332;51.082;5.832;2023-06-22T01:43:45;22.73;77.35
66506;HTU21D;53332;51.082;5.832;2023-06-22T01:46:11;22.69;77.75
66506;HTU21D;53332;51.082;5.832;2023-06-22T01:48:38;22.69;78.51
66506;HTU21D;53332;51.082;5.832;2023-06-22T01:51:04;22.68;79.09
66506;HTU21D;53332;51.082;5.832;2023-06-22T01:53:30;22.64;79.50
66506;HTU21D;53332;51.082;5.832;2023-06-22T01:55:56;22.64;80.32
66506;HTU21D;53332;51.082;5.832;2023-06-22T01:58:28;22.64;81.38
66506;HTU21D;53332;51.082;5.832;2023-06-22T02:01:09;22.63;82.17
66506;HTU21D;53332;51.082;5.832;2023-06-22T02:03:38;22.63;82.63
66506;HTU21D;53332;51.082;5.832;2023-06-22T02:06:10;22.64;83.22
66506;HTU21D;53332;51.082;5.832;2023-06-22T02:08:41;22.66;83.47
66506;HTU21D;53332;51.082;5.832;2023-06-22T02:11:12;22.68;83.67
66506;HTU21D;53332;51.082;5.832;2023-06-22T02:13:38;22.68;83.92
66506;HTU21D;53332;51.082;5.832;2023-06-22T02:16:10;22.68;84.06
66506;HTU21D;53332;51.082;5.832;2023-06-22T02:18:36;22.68;84.35
66506;HTU21D;53332;51.082;5.832;2023-06-22T02:21:02;22.68;84.58
66506;HTU21D;53332;51.082;5.832;2023-06-22T02:23:28;22.67;84.84
66506;HTU21D;53332;51.082;5.832;2023-06-22T02:25:54;22.65;84.81
66506;HTU21D;53332;51.082;5.832;2023-06-22T02:28:19;22.62;85.05
66506;HTU21D;53332;51.082;5.832;2023-06-22T02:30:45;22.67;85.01
66506;HTU21D;53332;51.082;5.832;2023-06-22T02:33:11;22.63;85.55
66506;HTU21D;53332;51.082;5.832;2023-06-22T02:35:37;22.64;86.03
66506;HTU21D;53332;51.082;5.832;2023-06-22T02:38:04;22.61;86.53
66506;HTU21D;53332;51.082;5.832;2023-06-22T02:40:30;22.56;87.03
66506;HTU21D;53332;51.082;5.832;2023-06-22T02:42:57;22.54;87.47
66506;HTU21D;53332;51.082;5.832;2023-06-22T02:45:26;22.53;87.72
66506;HTU21D;53332;51.082;5.832;2023-06-22T02:47:52;22.53;88.00
66506;HTU21D;53332;51.082;5.832;2023-06-22T02:50:18;22.53;88.46
66506;HTU21D;53332;51.082;5.832;2023-06-22T02:52:43;22.52;88.89
66506;HTU21D;53332;51.082;5.832;2023-06-22T02:55:08;22.53;89.11
66506;HTU21D;53332;51.082;5.832;2023-06-22T02:57:34;22.52;89.44
66506;HTU21D;53332;51.082;5.832;2023-06-22T03:00:00;22.49;89.86
66506;HTU21D;53332;51.082;5.832;2023-06-22T03:02:27;22.47;90.02
66506;HTU21D;53332;51.082;5.832;2023-06-22T03:04:53;22.40;90.48
66506;HTU21D;53332;51.082;5.832;2023-06-22T03:07:19;22.40;90.44
66506;HTU21D;53332;51.082;5.832;2023-06-22T03:09:45;22.39;90.12
66506;HTU21D;53332;51.082;5.832;2023-06-22T03:12:11;22.39;89.98
66506;HTU21D;53332;51.082;5.832;2023-06-22T03:14:37;22.37;89.70
66506;HTU21D;53332;51.082;5.832;2023-06-22T03:17:04;22.32;89.63
66506;HTU21D;53332;51.082;5.832;2023-06-22T03:19:30;22.28;89.79
66506;HTU21D;53332;51.082;5.832;2023-06-22T03:21:58;22.25;89.92
66506;HTU21D;53332;51.082;5.832;2023-06-22T03:24:24;22.18;90.37
66506;HTU21D;53332;51.082;5.832;2023-06-22T03:26:49;22.17;90.52
66506;HTU21D;53332;51.082;5.832;2023-06-22T03:29:15;22.14;90.73
66506;HTU21D;53332;51.082;5.832;2023-06-22T03:31:41;22.16;90.78
66506;HTU21D;53332;51.082;5.832;2023-06-22T03:34:06;22.18;90.87
66506;HTU21D;53332;51.082;5.832;2023-06-22T03:36:32;22.16;91.22
66506;HTU21D;53332;51.082;5.832;2023-06-22T03:38:57;22.16;91.68
66506;HTU21D;53332;51.082;5.832;2023-06-22T03:41:23;22.19;91.65
66506;HTU21D;53332;51.082;5.832;2023-06-22T03:43:48;22.19;91.96
66506;HTU21D;53332;51.082;5.832;2023-06-22T03:46:14;22.21;92.13
66506;HTU21D;53332;51.082;5.832;2023-06-22T03:48:39;22.17;92.64
66506;HTU21D;53332;51.082;5.832;2023-06-22T03:51:05;22.17;92.76
66506;HTU21D;53332;51.082;5.832;2023-06-22T03:53:31;22.21;93.11
66506;HTU21D;53332;51.082;5.832;2023-06-22T03:55:57;22.25;93.27
66506;HTU21D;53332;51.082;5.832;2023-06-22T03:58:22;22.26;93.77
66506;HTU21D;53332;51.082;5.832;2023-06-22T04:00:50;22.29;94.53
66506;HTU21D;53332;51.082;5.832;2023-06-22T04:03:16;22.27;95.12
66506;HTU21D;53332;51.082;5.832;2023-06-22T04:05:44;22.22;96.09
66506;HTU21D;53332;51.082;5.832;2023-06-22T04:08:11;22.21;96.09
66506;HTU21D;53332;51.082;5.832;2023-06-22T04:10:37;22.20;96.32
66506;HTU21D;53332;51.082;5.832;2023-06-22T04:13:02;22.17;96.38
66506;HTU21D;53332;51.082;5.832;2023-06-22T04:15:28;22.16;96.07
66506;HTU21D;53332;51.082;5.832;2023-06-22T04:17:54;22.17;95.77
66506;HTU21D;53332;51.082;5.832;2023-06-22T04:20:20;22.18;95.56
66506;HTU21D;53332;51.082;5.832;2023-06-22T04:22:46;22.18;95.68
66506;HTU21D;53332;51.082;5.832;2023-06-22T04:25:11;22.16;95.41
66506;HTU21D;53332;51.082;5.832;2023-06-22T04:27:37;22.13;95.39
66506;HTU21D;53332;51.082;5.832;2023-06-22T04:30:07;22.11;95.31
66506;HTU21D;53332;51.082;5.832;2023-06-22T04:32:33;22.17;95.07
66506;HTU21D;53332;51.082;5.832;2023-06-22T04:35:02;22.19;94.98
66506;HTU21D;53332;51.082;5.832;2023-06-22T04:37:27;22.23;95.10
66506;HTU21D;53332;51.082;5.832;2023-06-22T04:39:53;22.24;95.00
66506;HTU21D;53332;51.082;5.832;2023-06-22T04:42:18;22.23;95.06
66506;HTU21D;53332;51.082;5.832;2023-06-22T04:44:44;22.20;95.20
66506;HTU21D;53332;51.082;5.832;2023-06-22T04:47:09;22.22;95.28
66506;HTU21D;53332;51.082;5.832;2023-06-22T04:49:36;22.27;95.06
66506;HTU21D;53332;51.082;5.832;2023-06-22T04:52:10;22.32;94.86
66506;HTU21D;53332;51.082;5.832;2023-06-22T04:54:38;22.32;94.68
66506;HTU21D;53332;51.082;5.832;2023-06-22T04:57:05;22.35;94.70
66506;HTU21D;53332;51.082;5.832;2023-06-22T04:59:36;22.34;94.55
66506;HTU21D;53332;51.082;5.832;2023-06-22T05:02:05;22.39;93.99
66506;HTU21D;53332;51.082;5.832;2023-06-22T05:04:34;22.43;94.24
66506;HTU21D;53332;51.082;5.832;2023-06-22T05:07:06;22.47;94.17
66506;HTU21D;53332;51.082;5.832;2023-06-22T05:09:32;22.51;93.86
66506;HTU21D;53332;51.082;5.832;2023-06-22T05:11:59;22.58;93.72
66506;HTU21D;53332;51.082;5.832;2023-06-22T05:14:27;22.58;93.82
66506;HTU21D;53332;51.082;5.832;2023-06-22T05:16:52;22.58;94.51
66506;HTU21D;53332;51.082;5.832;2023-06-22T05:19:18;22.61;94.45
66506;HTU21D;53332;51.082;5.832;2023-06-22T05:21:44;22.67;94.07
66506;HTU21D;53332;51.082;5.832;2023-06-22T05:24:09;22.69;93.96
66506;HTU21D;53332;51.082;5.832;2023-06-22T05:26:35;22.67;94.10
66506;HTU21D;53332;51.082;5.832;2023-06-22T05:29:02;22.65;94.11
66506;HTU21D;53332;51.082;5.832;2023-06-22T05:31:28;22.69;93.94
66506;HTU21D;53332;51.082;5.832;2023-06-22T05:33:55;22.73;93.50
66506;HTU21D;53332;51.082;5.832;2023-06-22T05:36:22;22.78;93.66
66506;HTU21D;53332;51.082;5.832;2023-06-22T05:38:52;22.82;93.84
66506;HTU21D;53332;51.082;5.832;2023-06-22T05:41:18;22.88;93.52
66506;HTU21D;53332;51.082;5.832;2023-06-22T05:43:44;22.92;92.48
66506;HTU21D;53332;51.082;5.832;2023-06-22T05:46:09;22.95;91.58
66506;HTU21D;53332;51.082;5.832;2023-06-22T05:48:35;22.97;91.37
66506;HTU21D;53332;51.082;5.832;2023-06-22T05:51:00;22.99;91.36
66506;HTU21D;53332;51.082;5.832;2023-06-22T05:53:26;23.03;91.19
66506;HTU21D;53332;51.082;5.832;2023-06-22T05:55:51;23.06;90.82
66506;HTU21D;53332;51.082;5.832;2023-06-22T05:58:17;23.07;90.99
66506;HTU21D;53332;51.082;5.832;2023-06-22T06:00:43;23.11;91.14
66506;HTU21D;53332;51.082;5.832;2023-06-22T06:03:09;23.13;90.92
66506;HTU21D;53332;51.082;5.832;2023-06-22T06:05:35;23.15;90.60
66506;HTU21D;53332;51.082;5.832;2023-06-22T06:08:02;23.21;90.27
66506;HTU21D;53332;51.082;5.832;2023-06-22T06:10:30;23.25;90.42
66506;HTU21D;53332;51.082;5.832;2023-06-22T06:12:56;23.27;90.24
66506;HTU21D;53332;51.082;5.832;2023-06-22T06:15:22;23.26;89.95
66506;HTU21D;53332;51.082;5.832;2023-06-22T06:17:52;23.27;90.07
66506;HTU21D;53332;51.082;5.832;2023-06-22T06:20:20;23.28;89.67
66506;HTU21D;53332;51.082;5.832;2023-06-22T06:22:47;23.28;89.54
66506;HTU21D;53332;51.082;5.832;2023-06-22T06:25:14;23.28;89.73
66506;HTU21D;53332;51.082;5.832;2023-06-22T06:27:45;23.27;89.86
66506;HTU21D;53332;51.082;5.832;2023-06-22T06:30:12;23.29;90.19
66506;HTU21D;53332;51.082;5.832;2023-06-22T06:32:38;23.31;90.56
66506;HTU21D;53332;51.082;5.832;2023-06-22T06:35:09;23.27;91.33
66506;HTU21D;53332;51.082;5.832;2023-06-22T06:37:43;23.24;93.75
66506;HTU21D;53332;51.082;5.832;2023-06-22T06:40:11;23.22;95.71
66506;HTU21D;53332;51.082;5.832;2023-06-22T06:42:41;23.18;96.92
66506;HTU21D;53332;51.082;5.832;2023-06-22T06:45:11;23.17;98.21
66506;HTU21D;53332;51.082;5.832;2023-06-22T06:47:37;23.21;99.02
66506;HTU21D;53332;51.082;5.832;2023-06-22T06:50:04;23.18;99.05
66506;HTU21D;53332;51.082;5.832;2023-06-22T06:52:30;23.11;100.42
66506;HTU21D;53332;51.082;5.832;2023-06-22T06:54:55;23.06;101.22
66506;HTU21D;53332;51.082;5.832;2023-06-22T06:57:21;23.03;102.12
66506;HTU21D;53332;51.082;5.832;2023-06-22T06:59:48;23.00;103.60
66506;HTU21D;53332;51.082;5.832;2023-06-22T07:02:15;22.97;104.63
66506;HTU21D;53332;51.082;5.832;2023-06-22T07:04:40;23.00;104.63
66506;HTU21D;53332;51.082;5.832;2023-06-22T07:07:06;23.02;104.44
66506;HTU21D;53332;51.082;5.832;2023-06-22T07:09:33;23.05;104.25
66506;HTU21D;53332;51.082;5.832;2023-06-22T07:11:58;23.07;104.68
66506;HTU21D;53332;51.082;5.832;2023-06-22T07:14:24;23.09;104.58
66506;HTU21D;53332;51.082;5.832;2023-06-22T07:16:49;23.13;103.95
66506;HTU21D;53332;51.082;5.832;2023-06-22T07:19:15;23.15;103.55
66506;HTU21D;53332;51.082;5.832;2023-06-22T07:21:40;23.16;104.33
66506;HTU21D;53332;51.082;5.832;2023-06-22T07:24:06;23.21;104.50
66506;HTU21D;53332;51.082;5.832;2023-06-22T07:26:33;23.27;104.47
66506;HTU21D;53332;51.082;5.832;2023-06-22T07:28:58;23.32;104.48
66506;HTU21D;53332;51.082;5.832;2023-06-22T07:31:25;23.43;103.29
66506;HTU21D;53332;51.082;5.832;2023-06-22T07:33:51;23.52;102.60
66506;HTU21D;53332;51.082;5.832;2023-06-22T07:36:17;23.60;101.69
66506;HTU21D;53332;51.082;5.832;2023-06-22T07:38:43;23.66;100.86
66506;HTU21D;53332;51.082;5.832;2023-06-22T07:41:08;23.70;99.57
66506;HTU21D;53332;51.082;5.832;2023-06-22T07:43:34;23.72;98.98
66506;HTU21D;53332;51.082;5.832;2023-06-22T07:46:03;23.80;98.05
66506;HTU21D;53332;51.082;5.832;2023-06-22T07:48:29;23.80;96.49
66506;HTU21D;53332;51.082;5.832;2023-06-22T07:50:55;23.82;95.43
66506;HTU21D;53332;51.082;5.832;2023-06-22T07:53:21;23.80;96.56
66506;HTU21D;53332;51.082;5.832;2023-06-22T07:55:47;23.82;97.07
66506;HTU21D;53332;51.082;5.832;2023-06-22T07:58:13;23.80;95.43
66506;HTU21D;53332;51.082;5.832;2023-06-22T08:00:38;23.83;95.38
66506;HTU21D;53332;51.082;5.832;2023-06-22T08:03:04;24.02;94.42
66506;HTU21D;53332;51.082;5.832;2023-06-22T08:05:31;24.34;94.07
66506;HTU21D;53332;51.082;5.832;2023-06-22T08:07:57;24.76;93.84
66506;HTU21D;53332;51.082;5.832;2023-06-22T08:10:23;25.17;90.83
66506;HTU21D;53332;51.082;5.832;2023-06-22T08:12:49;25.50;88.49
66506;HTU21D;53332;51.082;5.832;2023-06-22T08:15:14;25.76;86.15
66506;HTU21D;53332;51.082;5.832;2023-06-22T08:17:40;25.98;84.58
66506;HTU21D;53332;51.082;5.832;2023-06-22T08:20:07;26.19;82.74
66506;HTU21D;53332;51.082;5.832;2023-06-22T08:22:42;26.32;80.69
66506;HTU21D;53332;51.082;5.832;2023-06-22T08:25:09;26.46;80.26
66506;HTU21D;53332;51.082;5.832;2023-06-22T08:27:35;26.60;78.06
66506;HTU21D;53332;51.082;5.832;2023-06-22T08:30:01;26.69;76.92
66506;HTU21D;53332;51.082;5.832;2023-06-22T08:32:30;26.84;75.88
66506;HTU21D;53332;51.082;5.832;2023-06-22T08:34:57;26.75;74.51
66506;HTU21D;53332;51.082;5.832;2023-06-22T08:37:23;26.69;75.36
66506;HTU21D;53332;51.082;5.832;2023-06-22T08:40:00;26.80;76.18
66506;HTU21D;53332;51.082;5.832;2023-06-22T08:42:26;26.85;76.05
66506;HTU21D;53332;51.082;5.832;2023-06-22T08:44:52;26.87;74.51
66506;HTU21D;53332;51.082;5.832;2023-06-22T08:47:19;26.73;75.40
66506;HTU21D;53332;51.082;5.832;2023-06-22T08:49:45;26.71;75.61
66506;HTU21D;53332;51.082;5.832;2023-06-22T08:52:10;26.61;75.50
66506;HTU21D;53332;51.082;5.832;2023-06-22T08:54:35;26.52;76.02
66506;HTU21D;53332;51.082;5.832;2023-06-22T08:57:02;26.34;76.48
66506;HTU21D;53332;51.082;5.832;2023-06-22T08:59:27;26.21;77.09
66506;HTU21D;53332;51.082;5.832;2023-06-22T09:01:53;26.11;78.27
66506;HTU21D;53332;51.082;5.832;2023-06-22T09:04:19;26.05;79.20
66506;HTU21D;53332;51.082;5.832;2023-06-22T09:06:47;26.19;79.99
66506;HTU21D;53332;51.082;5.832;2023-06-22T09:09:13;26.35;78.71
66506;HTU21D;53332;51.082;5.832;2023-06-22T09:11:40;26.41;79.40
66506;HTU21D;53332;51.082;5.832;2023-06-22T09:14:05;26.53;78.79
66506;HTU21D;53332;51.082;5.832;2023-06-22T09:16:31;26.61;78.40
66506;HTU21D;53332;51.082;5.832;2023-06-22T09:18:57;26.71;77.31
66506;HTU21D;53332;51.082;5.832;2023-06-22T09:21:23;26.65;75.91
66506;HTU21D;53332;51.082;5.832;2023-06-22T09:23:49;26.58;77.33
66506;HTU21D;53332;51.082;5.832;2023-06-22T09:26:20;26.58;76.89
66506;HTU21D;53332;51.082;5.832;2023-06-22T09:28:46;26.57;77.89
66506;HTU21D;53332;51.082;5.832;2023-06-22T09:31:12;26.64;77.60
66506;HTU21D;53332;51.082;5.832;2023-06-22T09:33:40;26.63;78.12
66506;HTU21D;53332;51.082;5.832;2023-06-22T09:36:06;26.53;78.62
66506;HTU21D;53332;51.082;5.832;2023-06-22T09:38:36;26.47;78.37
66506;HTU21D;53332;51.082;5.832;2023-06-22T09:41:02;26.46;78.52
66506;HTU21D;53332;51.082;5.832;2023-06-22T09:43:28;26.49;78.40
66506;HTU21D;53332;51.082;5.832;2023-06-22T09:45:53;26.47;77.95
66506;HTU21D;53332;51.082;5.832;2023-06-22T09:48:19;26.38;78.21
66506;HTU21D;53332;51.082;5.832;2023-06-22T09:50:45;26.34;78.41
66506;HTU21D;53332;51.082;5.832;2023-06-22T09:53:10;26.27;79.14
66506;HTU21D;53332;51.082;5.832;2023-06-22T09:55:36;26.25;80.31
66506;HTU21D;53332;51.082;5.832;2023-06-22T09:58:01;26.25;79.85
66506;HTU21D;53332;51.082;5.832;2023-06-22T10:00:26;26.17;79.28
66506;HTU21D;53332;51.082;5.832;2023-06-22T10:02:52;26.15;79.51
66506;HTU21D;53332;51.082;5.832;2023-06-22T10:05:18;26.11;79.37
66506;HTU21D;53332;51.082;5.832;2023-06-22T10:07:43;25.95;79.59
66506;HTU21D;53332;51.082;5.832;2023-06-22T10:10:10;25.90;80.20
66506;HTU21D;53332;51.082;5.832;2023-06-22T10:12:42;25.88;80.21
66506;HTU21D;53332;51.082;5.832;2023-06-22T10:15:08;25.86;80.01
66506;HTU21D;53332;51.082;5.832;2023-06-22T10:17:34;25.83;80.78
66506;HTU21D;53332;51.082;5.832;2023-06-22T10:20:00;25.84;81.20
66506;HTU21D;53332;51.082;5.832;2023-06-22T10:22:26;25.87;82.63
66506;HTU21D;53332;51.082;5.832;2023-06-22T10:24:52;25.88;84.74
66506;HTU21D;53332;51.082;5.832;2023-06-22T10:27:17;25.84;85.51
66506;HTU21D;53332;51.082;5.832;2023-06-22T10:29:44;25.84;87.97
66506;HTU21D;53332;51.082;5.832;2023-06-22T10:32:09;25.86;88.23
66506;HTU21D;53332;51.082;5.832;2023-06-22T10:34:35;25.81;89.73
66506;HTU21D;53332;51.082;5.832;2023-06-22T10:37:00;25.76;91.80
66506;HTU21D;53332;51.082;5.832;2023-06-22T10:39:26;25.69;94.50
66506;HTU21D;53332;51.082;5.832;2023-06-22T10:41:51;25.57;94.40
66506;HTU21D;53332;51.082;5.832;2023-06-22T10:44:17;25.43;98.15
66506;HTU21D;53332;51.082;5.832;2023-06-22T10:46:42;25.32;100.39
66506;HTU21D;53332;51.082;5.832;2023-06-22T10:49:08;25.19;103.61
66506;HTU21D;53332;51.082;5.832;2023-06-22T10:51:33;25.08;105.55
66506;HTU21D;53332;51.082;5.832;2023-06-22T10:53:59;25.00;106.86
66506;HTU21D;53332;51.082;5.832;2023-06-22T10:56:25;24.95;107.85
66506;HTU21D;53332;51.082;5.832;2023-06-22T10:58:50;24.91;109.02
66506;HTU21D;53332;51.082;5.832;2023-06-22T11:01:15;24.84;109.10
66506;HTU21D;53332;51.082;5.832;2023-06-22T11:03:41;24.72;110.10
66506;HTU21D;53332;51.082;5.832;2023-06-22T11:06:07;24.60;111.61
66506;HTU21D;53332;51.082;5.832;2023-06-22T11:08:32;24.49;112.19
66506;HTU21D;53332;51.082;5.832;2023-06-22T11:10:58;24.43;113.82
66506;HTU21D;53332;51.082;5.832;2023-06-22T11:13:23;24.42;115.97
66506;HTU21D;53332;51.082;5.832;2023-06-22T11:15:50;24.45;117.77
66506;HTU21D;53332;51.082;5.832;2023-06-22T11:18:15;24.54;118.50
66506;HTU21D;53332;51.082;5.832;2023-06-22T11:20:42;24.65;118.77
66506;HTU21D;53332;51.082;5.832;2023-06-22T11:23:08;24.78;118.99
66506;HTU21D;53332;51.082;5.832;2023-06-22T11:25:33;24.88;118.99
66506;HTU21D;53332;51.082;5.832;2023-06-22T11:28:03;24.93;118.60
66506;HTU21D;53332;51.082;5.832;2023-06-22T11:30:30;24.98;116.71
66506;HTU21D;53332;51.082;5.832;2023-06-22T11:32:58;25.00;115.58
66506;HTU21D;53332;51.082;5.832;2023-06-22T11:35:24;25.00;114.16
66506;HTU21D;53332;51.082;5.832;2023-06-22T11:37:49;25.02;114.26
66506;HTU21D;53332;51.082;5.832;2023-06-22T11:40:15;25.06;114.28
66506;HTU21D;53332;51.082;5.832;2023-06-22T11:42:40;25.09;115.12
66506;HTU21D;53332;51.082;5.832;2023-06-22T11:45:06;25.13;114.79
66506;HTU21D;53332;51.082;5.832;2023-06-22T11:47:32;25.18;114.55
66506;HTU21D;53332;51.082;5.832;2023-06-22T11:49:58;25.23;114.16
66506;HTU21D;53332;51.082;5.832;2023-06-22T11:52:23;25.23;114.73
66506;HTU21D;53332;51.082;5.832;2023-06-22T11:54:48;25.24;113.88
66506;HTU21D;53332;51.082;5.832;2023-06-22T11:57:14;25.19;114.04
66506;HTU21D;53332;51.082;5.832;2023-06-22T11:59:40;25.19;114.32
66506;HTU21D;53332;51.082;5.832;2023-06-22T12:02:05;25.16;114.01
66506;HTU21D;53332;51.082;5.832;2023-06-22T12:04:32;25.12;113.70
66506;HTU21D;53332;51.082;5.832;2023-06-22T12:06:58;25.07;112.94
66506;HTU21D;53332;51.082;5.832;2023-06-22T12:09:24;25.05;114.08
66506;HTU21D;53332;51.082;5.832;2023-06-22T12:11:49;25.07;114.15
66506;HTU21D;53332;51.082;5.832;2023-06-22T12:14:15;25.05;113.46
66506;HTU21D;53332;51.082;5.832;2023-06-22T12:16:40;25.01;113.17
66506;HTU21D;53332;51.082;5.832;2023-06-22T12:19:06;24.94;112.11
66506;HTU21D;53332;51.082;5.832;2023-06-22T12:21:32;24.87;111.96
66506;HTU21D;53332;51.082;5.832;2023-06-22T12:23:57;24.79;111.65
66506;HTU21D;53332;51.082;5.832;2023-06-22T12:26:23;24.68;111.62
66506;HTU21D;53332;51.082;5.832;2023-06-22T12:28:48;24.55;112.41
66506;HTU21D;53332;51.082;5.832;2023-06-22T12:31:14;24.53;111.93
66506;HTU21D;53332;51.082;5.832;2023-06-22T12:33:40;24.38;113.06
66506;HTU21D;53332;51.082;5.832;2023-06-22T12:36:05;24.29;114.72
66506;HTU21D;53332;51.082;5.832;2023-06-22T12:38:31;24.24;115.45
66506;HTU21D;53332;51.082;5.832;2023-06-22T12:40:56;24.12;115.99
66506;HTU21D;53332;51.082;5.832;2023-06-22T12:43:22;24.08;115.96
66506;HTU21D;53332;51.082;5.832;2023-06-22T12:45:47;24.04;116.65
66506;HTU21D;53332;51.082;5.832;2023-06-22T12:48:13;24.01;116.44
66506;HTU21D;53332;51.082;5.832;2023-06-22T12:50:39;23.97;116.12
66506;HTU21D;53332;51.082;5.832;2023-06-22T12:53:04;23.97;115.32
66506;HTU21D;53332;51.082;5.832;2023-06-22T12:55:31;23.92;115.02
66506;HTU21D;53332;51.082;5.832;2023-06-22T12:57:57;23.92;116.02
66506;HTU21D;53332;51.082;5.832;2023-06-22T13:00:23;23.92;116.38
66506;HTU21D;53332;51.082;5.832;2023-06-22T13:02:49;23.86;116.61
66506;HTU21D;53332;51.082;5.832;2023-06-22T13:05:14;23.85;115.58
66506;HTU21D;53332;51.082;5.832;2023-06-22T13:07:40;23.75;114.79
66506;HTU21D;53332;51.082;5.832;2023-06-22T13:10:07;23.64;115.12
66506;HTU21D;53332;51.082;5.832;2023-06-22T13:12:33;23.55;115.17
66506;HTU21D;53332;51.082;5.832;2023-06-22T13:14:58;23.51;115.40
66506;HTU21D;53332;51.082;5.832;2023-06-22T13:17:24;23.43;116.09
66506;HTU21D;53332;51.082;5.832;2023-06-22T13:19:49;23.40;117.47
66506;HTU21D;53332;51.082;5.832;2023-06-22T13:22:32;23.35;117.42
66506;HTU21D;53332;51.082;5.832;2023-06-22T13:25:00;23.26;117.41
66506;HTU21D;53332;51.082;5.832;2023-06-22T13:27:25;23.20;117.67
66506;HTU21D;53332;51.082;5.832;2023-06-22T13:29:52;23.12;118.11
66506;HTU21D;53332;51.082;5.832;2023-06-22T13:32:17;23.10;118.31
66506;HTU21D;53332;51.082;5.832;2023-06-22T13:34:43;23.02;118.92
66506;HTU21D;53332;51.082;5.832;2023-06-22T13:37:09;23.01;118.99
66506;HTU21D;53332;51.082;5.832;2023-06-22T13:39:34;23.02;118.99
66506;HTU21D;53332;51.082;5.832;2023-06-22T13:42:00;22.98;118.99
66506;HTU21D;53332;51.082;5.832;2023-06-22T13:44:26;22.97;118.99
66506;HTU21D;53332;51.082;5.832;2023-06-22T13:46:54;22.95;118.99
66506;HTU21D;53332;51.082;5.832;2023-06-22T13:49:20;22.92;118.99
66506;HTU21D;53332;51.082;5.832;2023-06-22T13:51:47;22.92;118.99
66506;HTU21D;53332;51.082;5.832;2023-06-22T13:54:14;22.90;118.99
66506;HTU21D;53332;51.082;5.832;2023-06-22T13:56:39;22.86;118.99
66506;HTU21D;53332;51.082;5.832;2023-06-22T13:59:05;22.84;118.99
66506;HTU21D;53332;51.082;5.832;2023-06-22T14:01:32;22.83;118.99
66506;HTU21D;53332;51.082;5.832;2023-06-22T14:03:57;22.79;118.99
66506;HTU21D;53332;51.082;5.832;2023-06-22T14:06:23;22.72;118.99
66506;HTU21D;53332;51.082;5.832;2023-06-22T14:08:48;22.66;118.99
66506;HTU21D;53332;51.082;5.832;2023-06-22T14:11:14;22.63;118.99
66506;HTU21D;53332;51.082;5.832;2023-06-22T14:13:40;22.57;118.99
66506;HTU21D;53332;51.082;5.832;2023-06-22T14:16:08;22.52;118.99
66506;HTU21D;53332;51.082;5.832;2023-06-22T14:18:33;22.47;118.99
66506;HTU21D;53332;51.082;5.832;2023-06-22T14:20:59;22.42;118.99
66506;HTU21D;53332;51.082;5.832;2023-06-22T14:23:25;22.34;118.99
66506;HTU21D;53332;51.082;5.832;2023-06-22T14:25:50;22.23;118.99
66506;HTU21D;53332;51.082;5.832;2023-06-22T14:28:16;22.10;118.99
66506;HTU21D;53332;51.082;5.832;2023-06-22T14:30:41;22.09;118.99
66506;HTU21D;53332;51.082;5.832;2023-06-22T14:33:07;21.97;118.99
66506;HTU21D;53332;51.082;5.832;2023-06-22T14:35:33;21.92;118.99
66506;HTU21D;53332;51.082;5.832;2023-06-22T14:37:58;21.87;118.99
66506;HTU21D;53332;51.082;5.832;2023-06-22T14:40:24;21.83;118.99
66506;HTU21D;53332;51.082;5.832;2023-06-22T14:42:49;21.79;118.99
66506;HTU21D;53332;51.082;5.832;2023-06-22T14:45:14;21.78;118.99
66506;HTU21D;53332;51.082;5.832;2023-06-22T14:47:40;21.73;118.99
66506;HTU21D;53332;51.082;5.832;2023-06-22T14:50:06;21.70;118.99
66506;HTU21D;53332;51.082;5.832;2023-06-22T14:52:31;21.68;118.99
66506;HTU21D;53332;51.082;5.832;2023-06-22T14:54:57;21.68;118.99
66506;HTU21D;53332;51.082;5.832;2023-06-22T14:57:22;21.68;118.99
66506;HTU21D;53332;51.082;5.832;2023-06-22T14:59:49;21.63;118.99
66506;HTU21D;53332;51.082;5.832;2023-06-22T15:02:14;21.58;118.99
66506;HTU21D;53332;51.082;5.832;2023-06-22T15:04:40;21.50;118.99
66506;HTU21D;53332;51.082;5.832;2023-06-22T15:07:06;21.46;118.99
66506;HTU21D;53332;51.082;5.832;2023-06-22T15:09:31;21.40;118.99
66506;HTU21D;53332;51.082;5.832;2023-06-22T15:11:57;21.34;118.99